sensor_id;sensor_type;location;lat;lon;timestamp;P1;durP1;ratioP1;P2;durP2;ratioP2
5167;SDS011;2603;48.918;8.980;2024-03-22T00:02:24;16.27;;;9.93;;
5167;SDS011;2603;48.918;8.980;2024-03-22T00:04:51;19.80;;;10.43;;
5167;SDS011;2603;48.918;8.980;2024-03-22T00:07:17;16.00;;;9.33;;
5167;SDS011;2603;48.918;8.980;2024-03-22T00:09:43;15.97;;;9.70;;
5167;SDS011;2603;48.918;8.980;2024-03-22T00:12:09;15.10;;;9.50;;
5167;SDS011;2603;48.918;8.980;2024-03-22T00:14:36;15.67;;;9.70;;
5167;SDS011;2603;48.918;8.980;2024-03-22T00:17:03;16.73;;;9.90;;
5167;SDS011;2603;48.918;8.980;2024-03-22T00:19:30;23.33;;;10.20;;
5167;SDS011;2603;48.918;8.980;2024-03-22T00:21:55;18.10;;;11.00;;
5167;SDS011;2603;48.918;8.980;2024-03-22T00:24:22;17.60;;;9.00;;
5167;SDS011;2603;48.918;8.980;2024-03-22T00:26:47;16.13;;;9.73;;
5167;SDS011;2603;48.918;8.980;2024-03-22T00:29:14;22.77;;;10.27;;
5167;SDS011;2603;48.918;8.980;2024-03-22T00:31:40;15.57;;;9.10;;
5167;SDS011;2603;48.918;8.980;2024-03-22T00:34:07;16.80;;;9.00;;
5167;SDS011;2603;48.918;8.980;2024-03-22T00:36:33;14.80;;;9.47;;
5167;SDS011;2603;48.918;8.980;2024-03-22T00:38:59;23.73;;;10.70;;
5167;SDS011;2603;48.918;8.980;2024-03-22T00:41:25;21.40;;;10.00;;
5167;SDS011;2603;48.918;8.980;2024-03-22T00:43:51;16.87;;;10.10;;
5167;SDS011;2603;48.918;8.980;2024-03-22T00:46:17;15.57;;;7.80;;
5167;SDS011;2603;48.918;8.980;2024-03-22T00:48:43;19.17;;;9.60;;
5167;SDS011;2603;48.918;8.980;2024-03-22T00:51:10;17.90;;;9.50;;
5167;SDS011;2603;48.918;8.980;2024-03-22T00:53:37;13.17;;;8.73;;
5167;SDS011;2603;48.918;8.980;2024-03-22T00:56:02;17.70;;;8.53;;
5167;SDS011;2603;48.918;8.980;2024-03-22T00:58:29;15.10;;;8.97;;
5167;SDS011;2603;48.918;8.980;2024-03-22T01:00:55;22.63;;;11.23;;
5167;SDS011;2603;48.918;8.980;2024-03-22T01:03:21;12.67;;;8.17;;
5167;SDS011;2603;48.918;8.980;2024-03-22T01:05:47;13.60;;;8.67;;
5167;SDS011;2603;48.918;8.980;2024-03-22T01:08:15;19.13;;;10.30;;
5167;SDS011;2603;48.918;8.980;2024-03-22T01:10:41;19.07;;;10.50;;
5167;SDS011;2603;48.918;8.980;2024-03-22T01:13:07;17.67;;;9.57;;
5167;SDS011;2603;48.918;8.980;2024-03-22T01:15:33;16.73;;;9.00;;
5167;SDS011;2603;48.918;8.980;2024-03-22T01:17:59;14.00;;;9.03;;
5167;SDS011;2603;48.918;8.980;2024-03-22T01:20:25;15.17;;;9.30;;
5167;SDS011;2603;48.918;8.980;2024-03-22T01:22:51;15.57;;;8.90;;
5167;SDS011;2603;48.918;8.980;2024-03-22T01:25:18;16.80;;;8.90;;
5167;SDS011;2603;48.918;8.980;2024-03-22T01:27:45;16.60;;;9.30;;
5167;SDS011;2603;48.918;8.980;2024-03-22T01:30:11;15.63;;;8.73;;
5167;SDS011;2603;48.918;8.980;2024-03-22T01:32:37;16.33;;;10.13;;
5167;SDS011;2603;48.918;8.980;2024-03-22T01:35:04;17.17;;;9.70;;
5167;SDS011;2603;48.918;8.980;2024-03-22T01:37:30;17.73;;;9.40;;
5167;SDS011;2603;48.918;8.980;2024-03-22T01:39:56;23.37;;;9.70;;
5167;SDS011;2603;48.918;8.980;2024-03-22T01:42:24;20.03;;;10.00;;
5167;SDS011;2603;48.918;8.980;2024-03-22T01:44:50;19.40;;;9.30;;
5167;SDS011;2603;48.918;8.980;2024-03-22T01:47:16;19.50;;;10.63;;
5167;SDS011;2603;48.918;8.980;2024-03-22T01:49:43;20.47;;;9.23;;
5167;SDS011;2603;48.918;8.980;2024-03-22T01:52:09;16.17;;;9.07;;
5167;SDS011;2603;48.918;8.980;2024-03-22T01:54:35;15.13;;;8.40;;
5167;SDS011;2603;48.918;8.980;2024-03-22T01:57:01;17.47;;;9.77;;
5167;SDS011;2603;48.918;8.980;2024-03-22T01:59:29;15.63;;;9.13;;
5167;SDS011;2603;48.918;8.980;2024-03-22T02:01:55;17.13;;;9.17;;
5167;SDS011;2603;48.918;8.980;2024-03-22T02:04:21;20.57;;;9.20;;
5167;SDS011;2603;48.918;8.980;2024-03-22T02:06:47;16.43;;;9.70;;
5167;SDS011;2603;48.918;8.980;2024-03-22T02:09:14;17.80;;;9.53;;
5167;SDS011;2603;48.918;8.980;2024-03-22T02:11:40;13.93;;;8.90;;
5167;SDS011;2603;48.918;8.980;2024-03-22T02:14:07;19.67;;;11.97;;
5167;SDS011;2603;48.918;8.980;2024-03-22T02:16:33;19.50;;;10.67;;
5167;SDS011;2603;48.918;8.980;2024-03-22T02:19:00;15.40;;;10.07;;
5167;SDS011;2603;48.918;8.980;2024-03-22T02:21:25;15.17;;;9.00;;
5167;SDS011;2603;48.918;8.980;2024-03-22T02:23:53;17.40;;;9.37;;
5167;SDS011;2603;48.918;8.980;2024-03-22T02:26:19;14.83;;;9.20;;
5167;SDS011;2603;48.918;8.980;2024-03-22T02:28:45;17.70;;;9.07;;
5167;SDS011;2603;48.918;8.980;2024-03-22T02:31:11;15.07;;;9.30;;
5167;SDS011;2603;48.918;8.980;2024-03-22T02:33:37;17.17;;;10.70;;
5167;SDS011;2603;48.918;8.980;2024-03-22T02:36:03;18.73;;;9.80;;
5167;SDS011;2603;48.918;8.980;2024-03-22T02:38:31;18.93;;;10.30;;
5167;SDS011;2603;48.918;8.980;2024-03-22T02:40:57;18.53;;;10.27;;
5167;SDS011;2603;48.918;8.980;2024-03-22T02:43:24;23.87;;;10.03;;
5167;SDS011;2603;48.918;8.980;2024-03-22T02:45:50;19.60;;;9.07;;
5167;SDS011;2603;48.918;8.980;2024-03-22T02:48:16;17.47;;;9.03;;
5167;SDS011;2603;48.918;8.980;2024-03-22T02:50:42;12.20;;;8.07;;
5167;SDS011;2603;48.918;8.980;2024-03-22T02:53:08;12.73;;;8.10;;
5167;SDS011;2603;48.918;8.980;2024-03-22T02:55:37;14.30;;;8.50;;
5167;SDS011;2603;48.918;8.980;2024-03-22T02:58:05;16.03;;;9.57;;
5167;SDS011;2603;48.918;8.980;2024-03-22T03:00:31;16.27;;;8.63;;
5167;SDS011;2603;48.918;8.980;2024-03-22T03:02:58;14.10;;;9.67;;
5167;SDS011;2603;48.918;8.980;2024-03-22T03:05:24;15.73;;;8.60;;
5167;SDS011;2603;48.918;8.980;2024-03-22T03:07:50;14.73;;;7.27;;
5167;SDS011;2603;48.918;8.980;2024-03-22T03:10:16;16.17;;;9.33;;
5167;SDS011;2603;48.918;8.980;2024-03-22T03:12:43;13.50;;;7.30;;
5167;SDS011;2603;48.918;8.980;2024-03-22T03:15:10;13.30;;;8.27;;
5167;SDS011;2603;48.918;8.980;2024-03-22T03:17:36;15.27;;;8.87;;
5167;SDS011;2603;48.918;8.980;2024-03-22T03:20:03;14.47;;;8.67;;
5167;SDS011;2603;48.918;8.980;2024-03-22T03:22:33;16.60;;;8.70;;
5167;SDS011;2603;48.918;8.980;2024-03-22T03:24:58;14.53;;;8.00;;
5167;SDS011;2603;48.918;8.980;2024-03-22T03:27:25;16.13;;;8.93;;
5167;SDS011;2603;48.918;8.980;2024-03-22T03:29:50;16.57;;;9.17;;
5167;SDS011;2603;48.918;8.980;2024-03-22T03:32:18;16.30;;;8.97;;
5167;SDS011;2603;48.918;8.980;2024-03-22T03:34:44;11.80;;;8.27;;
5167;SDS011;2603;48.918;8.980;2024-03-22T03:37:10;18.43;;;8.53;;
5167;SDS011;2603;48.918;8.980;2024-03-22T03:39:36;12.50;;;7.90;;
5167;SDS011;2603;48.918;8.980;2024-03-22T03:42:02;16.73;;;8.40;;
5167;SDS011;2603;48.918;8.980;2024-03-22T03:44:28;13.93;;;8.93;;
5167;SDS011;2603;48.918;8.980;2024-03-22T03:46:54;15.37;;;8.30;;
5167;SDS011;2603;48.918;8.980;2024-03-22T03:49:21;16.83;;;8.90;;
5167;SDS011;2603;48.918;8.980;2024-03-22T03:51:48;14.90;;;7.47;;
5167;SDS011;2603;48.918;8.980;2024-03-22T03:54:13;11.43;;;7.57;;
5167;SDS011;2603;48.918;8.980;2024-03-22T03:56:40;14.70;;;8.50;;
5167;SDS011;2603;48.918;8.980;2024-03-22T03:59:05;12.87;;;7.30;;
5167;SDS011;2603;48.918;8.980;2024-03-22T04:01:32;21.67;;;7.30;;
5167;SDS011;2603;48.918;8.980;2024-03-22T04:03:57;12.83;;;7.37;;
5167;SDS011;2603;48.918;8.980;2024-03-22T04:06:25;12.03;;;7.30;;
5167;SDS011;2603;48.918;8.980;2024-03-22T04:08:51;13.90;;;7.20;;
5167;SDS011;2603;48.918;8.980;2024-03-22T04:11:17;21.97;;;7.10;;
5167;SDS011;2603;48.918;8.980;2024-03-22T04:13:43;13.90;;;7.40;;
5167;SDS011;2603;48.918;8.980;2024-03-22T04:16:09;13.93;;;8.50;;
5167;SDS011;2603;48.918;8.980;2024-03-22T04:18:35;12.90;;;7.93;;
5167;SDS011;2603;48.918;8.980;2024-03-22T04:21:01;20.00;;;8.33;;
5167;SDS011;2603;48.918;8.980;2024-03-22T04:23:28;14.63;;;8.23;;
5167;SDS011;2603;48.918;8.980;2024-03-22T04:25:55;18.27;;;9.30;;
5167;SDS011;2603;48.918;8.980;2024-03-22T04:28:21;15.60;;;8.30;;
5167;SDS011;2603;48.918;8.980;2024-03-22T04:30:54;12.97;;;7.60;;
5167;SDS011;2603;48.918;8.980;2024-03-22T04:33:21;14.27;;;9.37;;
5167;SDS011;2603;48.918;8.980;2024-03-22T04:35:47;19.10;;;7.03;;
5167;SDS011;2603;48.918;8.980;2024-03-22T04:38:13;14.77;;;8.23;;
5167;SDS011;2603;48.918;8.980;2024-03-22T04:40:41;20.80;;;10.63;;
5167;SDS011;2603;48.918;8.980;2024-03-22T04:43:08;14.40;;;8.87;;
5167;SDS011;2603;48.918;8.980;2024-03-22T04:45:34;13.37;;;7.90;;
5167;SDS011;2603;48.918;8.980;2024-03-22T04:48:00;12.70;;;8.70;;
5167;SDS011;2603;48.918;8.980;2024-03-22T04:50:27;22.63;;;8.73;;
5167;SDS011;2603;48.918;8.980;2024-03-22T04:52:53;16.27;;;9.03;;
5167;SDS011;2603;48.918;8.980;2024-03-22T04:55:20;15.07;;;7.57;;
5167;SDS011;2603;48.918;8.980;2024-03-22T04:57:47;14.50;;;8.47;;
5167;SDS011;2603;48.918;8.980;2024-03-22T05:00:14;16.60;;;8.50;;
5167;SDS011;2603;48.918;8.980;2024-03-22T05:02:40;16.70;;;9.10;;
5167;SDS011;2603;48.918;8.980;2024-03-22T05:05:07;16.00;;;8.90;;
5167;SDS011;2603;48.918;8.980;2024-03-22T05:07:33;16.83;;;8.37;;
5167;SDS011;2603;48.918;8.980;2024-03-22T05:09:59;13.60;;;7.77;;
5167;SDS011;2603;48.918;8.980;2024-03-22T05:12:25;19.43;;;8.30;;
5167;SDS011;2603;48.918;8.980;2024-03-22T05:14:53;16.00;;;9.03;;
5167;SDS011;2603;48.918;8.980;2024-03-22T05:17:18;15.53;;;8.50;;
5167;SDS011;2603;48.918;8.980;2024-03-22T05:19:45;14.97;;;8.90;;
5167;SDS011;2603;48.918;8.980;2024-03-22T05:22:10;21.23;;;8.77;;
5167;SDS011;2603;48.918;8.980;2024-03-22T05:24:37;20.73;;;8.50;;
5167;SDS011;2603;48.918;8.980;2024-03-22T05:27:02;18.70;;;8.67;;
5167;SDS011;2603;48.918;8.980;2024-03-22T05:29:29;15.27;;;8.87;;
5167;SDS011;2603;48.918;8.980;2024-03-22T05:31:56;16.60;;;8.03;;
5167;SDS011;2603;48.918;8.980;2024-03-22T05:34:23;15.63;;;8.60;;
5167;SDS011;2603;48.918;8.980;2024-03-22T05:36:49;15.33;;;8.63;;
5167;SDS011;2603;48.918;8.980;2024-03-22T05:39:15;15.13;;;9.60;;
5167;SDS011;2603;48.918;8.980;2024-03-22T05:41:41;20.50;;;9.53;;
5167;SDS011;2603;48.918;8.980;2024-03-22T05:44:07;13.13;;;7.83;;
5167;SDS011;2603;48.918;8.980;2024-03-22T05:46:33;13.97;;;8.17;;
5167;SDS011;2603;48.918;8.980;2024-03-22T05:49:01;13.70;;;9.23;;
5167;SDS011;2603;48.918;8.980;2024-03-22T05:51:27;18.17;;;9.93;;
5167;SDS011;2603;48.918;8.980;2024-03-22T05:53:55;18.50;;;10.40;;
5167;SDS011;2603;48.918;8.980;2024-03-22T05:56:21;16.90;;;9.60;;
5167;SDS011;2603;48.918;8.980;2024-03-22T05:58:47;22.83;;;9.90;;
5167;SDS011;2603;48.918;8.980;2024-03-22T06:01:13;19.77;;;10.73;;
5167;SDS011;2603;48.918;8.980;2024-03-22T06:03:39;13.70;;;8.60;;
5167;SDS011;2603;48.918;8.980;2024-03-22T06:06:07;15.50;;;9.60;;
5167;SDS011;2603;48.918;8.980;2024-03-22T06:08:33;20.50;;;10.00;;
5167;SDS011;2603;48.918;8.980;2024-03-22T06:10:59;18.57;;;9.90;;
5167;SDS011;2603;48.918;8.980;2024-03-22T06:13:26;15.77;;;9.93;;
5167;SDS011;2603;48.918;8.980;2024-03-22T06:15:51;16.50;;;10.00;;
5167;SDS011;2603;48.918;8.980;2024-03-22T06:18:18;15.23;;;8.77;;
5167;SDS011;2603;48.918;8.980;2024-03-22T06:20:43;16.60;;;8.80;;
5167;SDS011;2603;48.918;8.980;2024-03-22T06:23:11;17.87;;;9.70;;
5167;SDS011;2603;48.918;8.980;2024-03-22T06:25:37;13.20;;;8.60;;
5167;SDS011;2603;48.918;8.980;2024-03-22T06:28:03;16.50;;;9.53;;
5167;SDS011;2603;48.918;8.980;2024-03-22T06:30:29;17.57;;;10.60;;
5167;SDS011;2603;48.918;8.980;2024-03-22T06:32:56;22.13;;;10.90;;
5167;SDS011;2603;48.918;8.980;2024-03-22T06:35:21;16.13;;;9.10;;
5167;SDS011;2603;48.918;8.980;2024-03-22T06:37:48;13.17;;;8.50;;
5167;SDS011;2603;48.918;8.980;2024-03-22T06:40:16;16.70;;;8.03;;
5167;SDS011;2603;48.918;8.980;2024-03-22T06:42:42;16.20;;;8.40;;
5167;SDS011;2603;48.918;8.980;2024-03-22T06:45:08;13.30;;;7.97;;
5167;SDS011;2603;48.918;8.980;2024-03-22T06:47:35;16.83;;;8.30;;
5167;SDS011;2603;48.918;8.980;2024-03-22T06:50:01;30.77;;;22.97;;
5167;SDS011;2603;48.918;8.980;2024-03-22T06:52:27;20.80;;;12.13;;
5167;SDS011;2603;48.918;8.980;2024-03-22T06:54:53;59.50;;;26.30;;
5167;SDS011;2603;48.918;8.980;2024-03-22T06:57:21;28.53;;;13.77;;
5167;SDS011;2603;48.918;8.980;2024-03-22T06:59:47;26.70;;;12.30;;
5167;SDS011;2603;48.918;8.980;2024-03-22T07:02:13;24.53;;;11.03;;
5167;SDS011;2603;48.918;8.980;2024-03-22T07:04:39;26.43;;;14.37;;
5167;SDS011;2603;48.918;8.980;2024-03-22T07:07:05;25.80;;;12.00;;
5167;SDS011;2603;48.918;8.980;2024-03-22T07:09:32;26.10;;;10.73;;
5167;SDS011;2603;48.918;8.980;2024-03-22T07:11:59;10.47;;;7.30;;
5167;SDS011;2603;48.918;8.980;2024-03-22T07:14:26;14.47;;;8.87;;
5167;SDS011;2603;48.918;8.980;2024-03-22T07:16:53;13.13;;;8.47;;
5167;SDS011;2603;48.918;8.980;2024-03-22T07:19:19;18.73;;;9.63;;
5167;SDS011;2603;48.918;8.980;2024-03-22T07:21:45;18.23;;;8.33;;
5167;SDS011;2603;48.918;8.980;2024-03-22T07:24:11;14.07;;;9.50;;
5167;SDS011;2603;48.918;8.980;2024-03-22T07:26:37;14.97;;;9.30;;
5167;SDS011;2603;48.918;8.980;2024-03-22T07:29:03;19.50;;;8.97;;
5167;SDS011;2603;48.918;8.980;2024-03-22T07:31:31;15.90;;;10.70;;
5167;SDS011;2603;48.918;8.980;2024-03-22T07:33:56;19.93;;;10.03;;
5167;SDS011;2603;48.918;8.980;2024-03-22T07:36:23;17.23;;;7.97;;
5167;SDS011;2603;48.918;8.980;2024-03-22T07:38:48;20.50;;;12.87;;
5167;SDS011;2603;48.918;8.980;2024-03-22T07:41:15;21.93;;;12.10;;
5167;SDS011;2603;48.918;8.980;2024-03-22T07:43:41;30.70;;;16.83;;
5167;SDS011;2603;48.918;8.980;2024-03-22T07:46:07;18.97;;;10.40;;
5167;SDS011;2603;48.918;8.980;2024-03-22T07:48:34;14.37;;;7.47;;
5167;SDS011;2603;48.918;8.980;2024-03-22T07:51:01;24.57;;;13.60;;
5167;SDS011;2603;48.918;8.980;2024-03-22T07:53:27;13.70;;;7.53;;
5167;SDS011;2603;48.918;8.980;2024-03-22T07:55:54;9.77;;;6.60;;
5167;SDS011;2603;48.918;8.980;2024-03-22T07:58:19;8.33;;;6.17;;
5167;SDS011;2603;48.918;8.980;2024-03-22T08:00:46;12.57;;;7.00;;
5167;SDS011;2603;48.918;8.980;2024-03-22T08:03:13;13.97;;;7.70;;
5167;SDS011;2603;48.918;8.980;2024-03-22T08:05:42;12.87;;;7.83;;
5167;SDS011;2603;48.918;8.980;2024-03-22T08:08:07;11.70;;;7.50;;
5167;SDS011;2603;48.918;8.980;2024-03-22T08:10:34;10.17;;;7.33;;
5167;SDS011;2603;48.918;8.980;2024-03-22T08:12:59;11.10;;;8.27;;
5167;SDS011;2603;48.918;8.980;2024-03-22T08:15:26;14.60;;;7.33;;
5167;SDS011;2603;48.918;8.980;2024-03-22T08:17:52;14.43;;;8.10;;
5167;SDS011;2603;48.918;8.980;2024-03-22T08:20:19;12.40;;;7.73;;
5167;SDS011;2603;48.918;8.980;2024-03-22T08:22:46;10.93;;;7.33;;
5167;SDS011;2603;48.918;8.980;2024-03-22T08:25:12;15.30;;;8.43;;
5167;SDS011;2603;48.918;8.980;2024-03-22T08:27:42;13.43;;;8.67;;
5167;SDS011;2603;48.918;8.980;2024-03-22T08:30:09;13.37;;;7.43;;
5167;SDS011;2603;48.918;8.980;2024-03-22T08:32:35;17.57;;;9.00;;
5167;SDS011;2603;48.918;8.980;2024-03-22T08:35:02;11.27;;;7.83;;
5167;SDS011;2603;48.918;8.980;2024-03-22T08:37:29;16.87;;;7.40;;
5167;SDS011;2603;48.918;8.980;2024-03-22T08:39:57;10.23;;;6.83;;
5167;SDS011;2603;48.918;8.980;2024-03-22T08:42:22;11.50;;;7.77;;
5167;SDS011;2603;48.918;8.980;2024-03-22T08:44:49;9.20;;;6.37;;
5167;SDS011;2603;48.918;8.980;2024-03-22T08:47:14;10.93;;;7.17;;
5167;SDS011;2603;48.918;8.980;2024-03-22T08:49:41;13.20;;;7.60;;
5167;SDS011;2603;48.918;8.980;2024-03-22T08:52:06;12.00;;;7.00;;
5167;SDS011;2603;48.918;8.980;2024-03-22T08:54:33;15.90;;;6.20;;
5167;SDS011;2603;48.918;8.980;2024-03-22T08:57:00;12.87;;;6.57;;
5167;SDS011;2603;48.918;8.980;2024-03-22T08:59:27;19.63;;;6.63;;
5167;SDS011;2603;48.918;8.980;2024-03-22T09:01:53;15.10;;;6.53;;
5167;SDS011;2603;48.918;8.980;2024-03-22T09:04:19;10.97;;;6.47;;
5167;SDS011;2603;48.918;8.980;2024-03-22T09:06:45;12.00;;;7.37;;
5167;SDS011;2603;48.918;8.980;2024-03-22T09:09:11;13.30;;;6.87;;
5167;SDS011;2603;48.918;8.980;2024-03-22T09:11:37;10.40;;;5.67;;
5167;SDS011;2603;48.918;8.980;2024-03-22T09:14:05;9.47;;;6.37;;
5167;SDS011;2603;48.918;8.980;2024-03-22T09:16:30;10.00;;;7.13;;
5167;SDS011;2603;48.918;8.980;2024-03-22T09:18:57;16.27;;;7.17;;
5167;SDS011;2603;48.918;8.980;2024-03-22T09:21:23;12.20;;;5.73;;
5167;SDS011;2603;48.918;8.980;2024-03-22T09:23:49;9.20;;;6.50;;
5167;SDS011;2603;48.918;8.980;2024-03-22T09:26:15;11.23;;;6.10;;
5167;SDS011;2603;48.918;8.980;2024-03-22T09:28:41;11.40;;;6.30;;
5167;SDS011;2603;48.918;8.980;2024-03-22T09:31:08;14.47;;;7.00;;
5167;SDS011;2603;48.918;8.980;2024-03-22T09:33:35;11.90;;;6.33;;
5167;SDS011;2603;48.918;8.980;2024-03-22T09:36:01;13.30;;;5.53;;
5167;SDS011;2603;48.918;8.980;2024-03-22T09:38:27;13.23;;;7.83;;
5167;SDS011;2603;48.918;8.980;2024-03-22T09:40:53;13.40;;;6.70;;
5167;SDS011;2603;48.918;8.980;2024-03-22T09:43:20;10.00;;;6.50;;
5167;SDS011;2603;48.918;8.980;2024-03-22T09:45:46;10.80;;;7.53;;
5167;SDS011;2603;48.918;8.980;2024-03-22T09:48:14;14.33;;;7.00;;
5167;SDS011;2603;48.918;8.980;2024-03-22T09:50:40;11.00;;;6.60;;
5167;SDS011;2603;48.918;8.980;2024-03-22T09:53:07;12.13;;;7.60;;
5167;SDS011;2603;48.918;8.980;2024-03-22T09:55:33;8.83;;;5.80;;
5167;SDS011;2603;48.918;8.980;2024-03-22T09:58:01;13.97;;;6.70;;
5167;SDS011;2603;48.918;8.980;2024-03-22T10:00:27;11.23;;;6.73;;
5167;SDS011;2603;48.918;8.980;2024-03-22T10:02:53;15.53;;;5.87;;
5167;SDS011;2603;48.918;8.980;2024-03-22T10:05:21;9.83;;;6.57;;
5167;SDS011;2603;48.918;8.980;2024-03-22T10:07:47;13.43;;;5.87;;
5167;SDS011;2603;48.918;8.980;2024-03-22T10:10:14;9.17;;;6.13;;
5167;SDS011;2603;48.918;8.980;2024-03-22T10:12:40;10.10;;;6.03;;
5167;SDS011;2603;48.918;8.980;2024-03-22T10:15:07;9.80;;;5.50;;
5167;SDS011;2603;48.918;8.980;2024-03-22T10:17:34;12.63;;;5.10;;
5167;SDS011;2603;48.918;8.980;2024-03-22T10:20:00;9.77;;;4.77;;
5167;SDS011;2603;48.918;8.980;2024-03-22T10:22:28;9.87;;;4.63;;
5167;SDS011;2603;48.918;8.980;2024-03-22T10:24:55;9.00;;;5.00;;
5167;SDS011;2603;48.918;8.980;2024-03-22T10:27:26;9.60;;;5.00;;
5167;SDS011;2603;48.918;8.980;2024-03-22T10:29:54;9.00;;;5.20;;
5167;SDS011;2603;48.918;8.980;2024-03-22T10:32:19;8.90;;;4.77;;
5167;SDS011;2603;48.918;8.980;2024-03-22T10:34:46;8.40;;;4.47;;
5167;SDS011;2603;48.918;8.980;2024-03-22T10:37:16;6.20;;;3.77;;
5167;SDS011;2603;48.918;8.980;2024-03-22T10:39:44;5.53;;;2.63;;
5167;SDS011;2603;48.918;8.980;2024-03-22T10:42:11;6.43;;;3.10;;
5167;SDS011;2603;48.918;8.980;2024-03-22T10:44:40;8.97;;;3.10;;
5167;SDS011;2603;48.918;8.980;2024-03-22T10:47:06;5.47;;;3.60;;
5167;SDS011;2603;48.918;8.980;2024-03-22T10:49:36;8.33;;;4.03;;
5167;SDS011;2603;48.918;8.980;2024-03-22T10:52:02;8.97;;;4.00;;
5167;SDS011;2603;48.918;8.980;2024-03-22T10:54:30;8.43;;;3.47;;
5167;SDS011;2603;48.918;8.980;2024-03-22T10:56:59;9.43;;;3.43;;
5167;SDS011;2603;48.918;8.980;2024-03-22T10:59:27;10.33;;;3.53;;
5167;SDS011;2603;48.918;8.980;2024-03-22T11:01:52;4.70;;;2.80;;
5167;SDS011;2603;48.918;8.980;2024-03-22T11:04:21;6.37;;;2.67;;
5167;SDS011;2603;48.918;8.980;2024-03-22T11:06:47;4.83;;;2.60;;
5167;SDS011;2603;48.918;8.980;2024-03-22T11:09:18;6.60;;;3.10;;
5167;SDS011;2603;48.918;8.980;2024-03-22T11:11:45;12.33;;;2.93;;
5167;SDS011;2603;48.918;8.980;2024-03-22T11:14:13;6.90;;;2.90;;
5167;SDS011;2603;48.918;8.980;2024-03-22T11:16:42;4.90;;;2.97;;
5167;SDS011;2603;48.918;8.980;2024-03-22T11:19:09;7.73;;;4.27;;
5167;SDS011;2603;48.918;8.980;2024-03-22T11:21:35;13.13;;;4.20;;
5167;SDS011;2603;48.918;8.980;2024-03-22T11:24:02;11.10;;;4.43;;
5167;SDS011;2603;48.918;8.980;2024-03-22T11:26:28;7.60;;;3.87;;
5167;SDS011;2603;48.918;8.980;2024-03-22T11:28:54;7.50;;;3.97;;
5167;SDS011;2603;48.918;8.980;2024-03-22T11:31:21;7.93;;;3.73;;
5167;SDS011;2603;48.918;8.980;2024-03-22T11:33:52;6.03;;;4.00;;
5167;SDS011;2603;48.918;8.980;2024-03-22T11:36:18;8.20;;;3.90;;
5167;SDS011;2603;48.918;8.980;2024-03-22T11:38:44;8.37;;;4.00;;
5167;SDS011;2603;48.918;8.980;2024-03-22T11:41:10;8.60;;;3.13;;
5167;SDS011;2603;48.918;8.980;2024-03-22T11:43:37;6.27;;;4.13;;
5167;SDS011;2603;48.918;8.980;2024-03-22T11:46:03;7.20;;;3.40;;
5167;SDS011;2603;48.918;8.980;2024-03-22T11:48:31;10.70;;;3.87;;
5167;SDS011;2603;48.918;8.980;2024-03-22T11:50:58;7.53;;;3.07;;
5167;SDS011;2603;48.918;8.980;2024-03-22T11:53:25;10.23;;;4.67;;
5167;SDS011;2603;48.918;8.980;2024-03-22T11:55:52;13.80;;;7.70;;
5167;SDS011;2603;48.918;8.980;2024-03-22T11:58:17;18.50;;;11.80;;
5167;SDS011;2603;48.918;8.980;2024-03-22T12:00:44;7.40;;;3.47;;
5167;SDS011;2603;48.918;8.980;2024-03-22T12:03:10;12.70;;;4.13;;
5167;SDS011;2603;48.918;8.980;2024-03-22T12:05:40;6.20;;;2.50;;
5167;SDS011;2603;48.918;8.980;2024-03-22T12:08:06;6.50;;;3.20;;
5167;SDS011;2603;48.918;8.980;2024-03-22T12:10:32;9.80;;;4.00;;
5167;SDS011;2603;48.918;8.980;2024-03-22T12:12:58;7.77;;;3.47;;
5167;SDS011;2603;48.918;8.980;2024-03-22T12:15:24;4.83;;;2.90;;
5167;SDS011;2603;48.918;8.980;2024-03-22T12:17:50;9.90;;;3.07;;
5167;SDS011;2603;48.918;8.980;2024-03-22T12:20:16;7.03;;;2.87;;
5167;SDS011;2603;48.918;8.980;2024-03-22T12:22:43;7.40;;;2.53;;
5167;SDS011;2603;48.918;8.980;2024-03-22T12:25:09;6.03;;;3.00;;
5167;SDS011;2603;48.918;8.980;2024-03-22T12:27:36;6.03;;;3.63;;
5167;SDS011;2603;48.918;8.980;2024-03-22T12:30:03;6.60;;;2.43;;
5167;SDS011;2603;48.918;8.980;2024-03-22T12:32:31;6.03;;;2.97;;
5167;SDS011;2603;48.918;8.980;2024-03-22T12:34:57;8.67;;;2.63;;
5167;SDS011;2603;48.918;8.980;2024-03-22T12:37:24;7.03;;;2.30;;
5167;SDS011;2603;48.918;8.980;2024-03-22T12:39:52;4.90;;;2.40;;
5167;SDS011;2603;48.918;8.980;2024-03-22T12:42:18;10.40;;;2.33;;
5167;SDS011;2603;48.918;8.980;2024-03-22T12:44:45;7.23;;;1.90;;
5167;SDS011;2603;48.918;8.980;2024-03-22T12:47:10;6.33;;;2.27;;
5167;SDS011;2603;48.918;8.980;2024-03-22T12:49:37;5.77;;;2.33;;
5167;SDS011;2603;48.918;8.980;2024-03-22T12:52:03;4.80;;;1.93;;
5167;SDS011;2603;48.918;8.980;2024-03-22T12:54:29;8.50;;;2.30;;
5167;SDS011;2603;48.918;8.980;2024-03-22T12:56:56;9.40;;;2.10;;
5167;SDS011;2603;48.918;8.980;2024-03-22T12:59:23;5.50;;;2.07;;
5167;SDS011;2603;48.918;8.980;2024-03-22T13:01:48;7.20;;;2.00;;
5167;SDS011;2603;48.918;8.980;2024-03-22T13:04:15;3.00;;;2.00;;
5167;SDS011;2603;48.918;8.980;2024-03-22T13:06:42;10.17;;;4.07;;
5167;SDS011;2603;48.918;8.980;2024-03-22T13:09:09;7.37;;;2.60;;
5167;SDS011;2603;48.918;8.980;2024-03-22T13:11:35;8.87;;;2.00;;
5167;SDS011;2603;48.918;8.980;2024-03-22T13:14:03;4.70;;;1.90;;
5167;SDS011;2603;48.918;8.980;2024-03-22T13:16:29;6.90;;;1.67;;
5167;SDS011;2603;48.918;8.980;2024-03-22T13:18:56;7.57;;;1.60;;
5167;SDS011;2603;48.918;8.980;2024-03-22T13:21:21;5.00;;;1.50;;
5167;SDS011;2603;48.918;8.980;2024-03-22T13:23:48;7.27;;;1.57;;
5167;SDS011;2603;48.918;8.980;2024-03-22T13:26:13;8.80;;;1.93;;
5167;SDS011;2603;48.918;8.980;2024-03-22T13:28:40;4.90;;;1.20;;
5167;SDS011;2603;48.918;8.980;2024-03-22T13:31:08;5.63;;;1.40;;
5167;SDS011;2603;48.918;8.980;2024-03-22T13:33:35;3.10;;;1.60;;
5167;SDS011;2603;48.918;8.980;2024-03-22T13:36:01;2.97;;;1.30;;
5167;SDS011;2603;48.918;8.980;2024-03-22T13:38:29;3.30;;;1.47;;
5167;SDS011;2603;48.918;8.980;2024-03-22T13:40:55;5.03;;;1.67;;
5167;SDS011;2603;48.918;8.980;2024-03-22T13:43:22;6.10;;;1.37;;
5167;SDS011;2603;48.918;8.980;2024-03-22T13:45:49;5.63;;;1.50;;
5167;SDS011;2603;48.918;8.980;2024-03-22T13:48:20;2.70;;;1.20;;
5167;SDS011;2603;48.918;8.980;2024-03-22T13:50:49;4.60;;;1.30;;
5167;SDS011;2603;48.918;8.980;2024-03-22T13:53:16;3.10;;;1.23;;
5167;SDS011;2603;48.918;8.980;2024-03-22T13:55:42;3.67;;;1.20;;
5167;SDS011;2603;48.918;8.980;2024-03-22T13:58:08;2.70;;;1.30;;
5167;SDS011;2603;48.918;8.980;2024-03-22T14:00:34;3.47;;;1.30;;
5167;SDS011;2603;48.918;8.980;2024-03-22T14:03:00;3.77;;;1.57;;
5167;SDS011;2603;48.918;8.980;2024-03-22T14:05:27;2.90;;;1.57;;
5167;SDS011;2603;48.918;8.980;2024-03-22T14:07:54;9.77;;;1.43;;
5167;SDS011;2603;48.918;8.980;2024-03-22T14:10:19;3.10;;;1.30;;
5167;SDS011;2603;48.918;8.980;2024-03-22T14:12:48;6.07;;;1.13;;
5167;SDS011;2603;48.918;8.980;2024-03-22T14:15:14;3.60;;;1.60;;
5167;SDS011;2603;48.918;8.980;2024-03-22T14:17:41;3.20;;;1.33;;
5167;SDS011;2603;48.918;8.980;2024-03-22T14:20:07;3.30;;;1.40;;
5167;SDS011;2603;48.918;8.980;2024-03-22T14:22:38;2.73;;;1.40;;
5167;SDS011;2603;48.918;8.980;2024-03-22T14:25:04;2.67;;;1.47;;
5167;SDS011;2603;48.918;8.980;2024-03-22T14:27:31;2.70;;;1.30;;
5167;SDS011;2603;48.918;8.980;2024-03-22T14:29:57;5.70;;;1.77;;
5167;SDS011;2603;48.918;8.980;2024-03-22T14:32:24;7.03;;;1.90;;
5167;SDS011;2603;48.918;8.980;2024-03-22T14:34:49;6.33;;;1.63;;
5167;SDS011;2603;48.918;8.980;2024-03-22T14:37:17;2.40;;;1.50;;
5167;SDS011;2603;48.918;8.980;2024-03-22T14:39:44;5.17;;;1.90;;
5167;SDS011;2603;48.918;8.980;2024-03-22T14:42:11;6.60;;;2.10;;
5167;SDS011;2603;48.918;8.980;2024-03-22T14:44:37;4.23;;;1.83;;
5167;SDS011;2603;48.918;8.980;2024-03-22T14:47:03;6.13;;;2.13;;
5167;SDS011;2603;48.918;8.980;2024-03-22T14:49:29;3.47;;;1.67;;
5167;SDS011;2603;48.918;8.980;2024-03-22T14:51:55;11.20;;;1.97;;
5167;SDS011;2603;48.918;8.980;2024-03-22T14:54:21;5.77;;;1.87;;
5167;SDS011;2603;48.918;8.980;2024-03-22T14:56:49;3.80;;;1.75;;
5167;SDS011;2603;48.918;8.980;2024-03-22T14:59:14;3.67;;;1.87;;
5167;SDS011;2603;48.918;8.980;2024-03-22T15:01:41;3.60;;;2.10;;